sensor_id;sensor_type;location;lat;lon;timestamp;temperature;humidity
22781;DHT22;11557;50.884;4.322;2022-07-23T00:02:20;19.80;99.90
22781;DHT22;11557;50.884;4.322;2022-07-23T00:04:46;19.70;99.90
22781;DHT22;11557;50.884;4.322;2022-07-23T00:07:12;19.80;99.90
22781;DHT22;11557;50.884;4.322;2022-07-23T00:09:37;19.80;99.90
22781;DHT22;11557;50.884;4.322;2022-07-23T00:12:03;19.70;99.90
22781;DHT22;11557;50.884;4.322;2022-07-23T00:14:29;19.70;99.90
22781;DHT22;11557;50.884;4.322;2022-07-23T00:16:55;19.30;99.90
22781;DHT22;11557;50.884;4.322;2022-07-23T00:19:21;19.70;99.90
22781;DHT22;11557;50.884;4.322;2022-07-23T00:21:47;19.60;99.90
22781;DHT22;11557;50.884;4.322;2022-07-23T00:24:12;19.60;99.90
22781;DHT22;11557;50.884;4.322;2022-07-23T00:26:38;19.60;99.90
22781;DHT22;11557;50.884;4.322;2022-07-23T00:29:03;19.60;99.90
22781;DHT22;11557;50.884;4.322;2022-07-23T00:31:29;19.50;99.90
22781;DHT22;11557;50.884;4.322;2022-07-23T00:33:55;19.50;99.90
22781;DHT22;11557;50.884;4.322;2022-07-23T00:36:26;19.50;99.90
22781;DHT22;11557;50.884;4.322;2022-07-23T00:38:52;19.60;99.90
22781;DHT22;11557;50.884;4.322;2022-07-23T00:41:19;19.50;99.90
22781;DHT22;11557;50.884;4.322;2022-07-23T00:43:44;19.50;99.90
22781;DHT22;11557;50.884;4.322;2022-07-23T00:46:10;19.30;99.90
22781;DHT22;11557;50.884;4.322;2022-07-23T00:48:36;19.30;99.90
22781;DHT22;11557;50.884;4.322;2022-07-23T00:51:01;19.40;99.90
22781;DHT22;11557;50.884;4.322;2022-07-23T00:53:27;19.40;99.90
22781;DHT22;11557;50.884;4.322;2022-07-23T00:55:54;19.30;99.90
22781;DHT22;11557;50.884;4.322;2022-07-23T00:58:19;19.40;99.90
22781;DHT22;11557;50.884;4.322;2022-07-23T01:00:45;19.40;99.90
22781;DHT22;11557;50.884;4.322;2022-07-23T01:03:11;19.40;99.90
22781;DHT22;11557;50.884;4.322;2022-07-23T01:05:37;19.40;99.90
22781;DHT22;11557;50.884;4.322;2022-07-23T01:08:05;19.30;99.90
22781;DHT22;11557;50.884;4.322;2022-07-23T01:10:30;19.40;99.90
22781;DHT22;11557;50.884;4.322;2022-07-23T01:13:06;19.30;99.90
22781;DHT22;11557;50.884;4.322;2022-07-23T01:15:34;19.10;99.90
22781;DHT22;11557;50.884;4.322;2022-07-23T01:18:00;19.30;99.90
22781;DHT22;11557;50.884;4.322;2022-07-23T01:20:25;19.30;99.90
22781;DHT22;11557;50.884;4.322;2022-07-23T01:22:52;19.30;99.90
22781;DHT22;11557;50.884;4.322;2022-07-23T01:25:18;19.30;99.90
22781;DHT22;11557;50.884;4.322;2022-07-23T01:27:44;19.30;99.90
22781;DHT22;11557;50.884;4.322;2022-07-23T01:30:10;19.20;99.90
22781;DHT22;11557;50.884;4.322;2022-07-23T01:32:36;19.20;99.90
22781;DHT22;11557;50.884;4.322;2022-07-23T01:35:02;19.30;99.90
22781;DHT22;11557;50.884;4.322;2022-07-23T01:37:27;19.30;99.90
22781;DHT22;11557;50.884;4.322;2022-07-23T01:39:53;19.30;99.90
22781;DHT22;11557;50.884;4.322;2022-07-23T01:42:18;19.30;99.90
22781;DHT22;11557;50.884;4.322;2022-07-23T01:44:44;19.30;99.90
22781;DHT22;11557;50.884;4.322;2022-07-23T01:47:10;19.30;99.90
22781;DHT22;11557;50.884;4.322;2022-07-23T01:49:36;19.20;99.90
22781;DHT22;11557;50.884;4.322;2022-07-23T01:52:02;19.20;99.90
22781;DHT22;11557;50.884;4.322;2022-07-23T01:54:33;19.20;99.90
22781;DHT22;11557;50.884;4.322;2022-07-23T01:56:59;19.10;99.90
22781;DHT22;11557;50.884;4.322;2022-07-23T01:59:26;19.10;99.90
22781;DHT22;11557;50.884;4.322;2022-07-23T02:01:52;19.10;99.90
22781;DHT22;11557;50.884;4.322;2022-07-23T02:04:19;19.10;99.90
22781;DHT22;11557;50.884;4.322;2022-07-23T02:06:45;19.00;99.90
22781;DHT22;11557;50.884;4.322;2022-07-23T02:09:10;19.00;99.90
22781;DHT22;11557;50.884;4.322;2022-07-23T02:11:36;19.20;99.90
22781;DHT22;11557;50.884;4.322;2022-07-23T02:14:02;19.10;99.90
22781;DHT22;11557;50.884;4.322;2022-07-23T02:16:27;19.10;99.90
22781;DHT22;11557;50.884;4.322;2022-07-23T02:18:53;19.00;99.90
22781;DHT22;11557;50.884;4.322;2022-07-23T02:21:19;18.90;99.90
22781;DHT22;11557;50.884;4.322;2022-07-23T02:23:44;18.90;99.90
22781;DHT22;11557;50.884;4.322;2022-07-23T02:26:10;18.90;99.90
22781;DHT22;11557;50.884;4.322;2022-07-23T02:28:37;19.00;99.90
22781;DHT22;11557;50.884;4.322;2022-07-23T02:31:02;19.00;99.90
22781;DHT22;11557;50.884;4.322;2022-07-23T02:33:29;19.00;99.90
22781;DHT22;11557;50.884;4.322;2022-07-23T02:35:54;19.00;99.90
22781;DHT22;11557;50.884;4.322;2022-07-23T02:38:20;18.90;99.90
22781;DHT22;11557;50.884;4.322;2022-07-23T02:40:46;18.90;99.90
22781;DHT22;11557;50.884;4.322;2022-07-23T02:43:12;18.80;99.90
22781;DHT22;11557;50.884;4.322;2022-07-23T02:45:37;18.80;99.90
22781;DHT22;11557;50.884;4.322;2022-07-23T02:48:03;18.90;99.90
22781;DHT22;11557;50.884;4.322;2022-07-23T02:50:29;18.90;99.90
22781;DHT22;11557;50.884;4.322;2022-07-23T02:52:54;18.90;99.90
22781;DHT22;11557;50.884;4.322;2022-07-23T02:55:20;18.80;99.90
22781;DHT22;11557;50.884;4.322;2022-07-23T02:57:45;18.70;99.90
22781;DHT22;11557;50.884;4.322;2022-07-23T03:00:11;18.80;99.90
22781;DHT22;11557;50.884;4.322;2022-07-23T03:02:37;18.80;99.90
22781;DHT22;11557;50.884;4.322;2022-07-23T03:05:03;18.90;99.90
22781;DHT22;11557;50.884;4.322;2022-07-23T03:07:29;18.90;99.90
22781;DHT22;11557;50.884;4.322;2022-07-23T03:09:54;18.90;99.90
22781;DHT22;11557;50.884;4.322;2022-07-23T03:12:20;18.80;99.90
22781;DHT22;11557;50.884;4.322;2022-07-23T03:14:46;18.70;99.90
22781;DHT22;11557;50.884;4.322;2022-07-23T03:17:11;18.70;99.90
22781;DHT22;11557;50.884;4.322;2022-07-23T03:19:37;18.80;99.90
22781;DHT22;11557;50.884;4.322;2022-07-23T03:22:04;18.70;99.90
22781;DHT22;11557;50.884;4.322;2022-07-23T03:24:30;18.70;99.90
22781;DHT22;11557;50.884;4.322;2022-07-23T03:27:14;18.80;99.90
22781;DHT22;11557;50.884;4.322;2022-07-23T03:29:39;18.70;99.90
22781;DHT22;11557;50.884;4.322;2022-07-23T03:32:05;18.70;99.90
22781;DHT22;11557;50.884;4.322;2022-07-23T03:34:31;18.70;99.90
22781;DHT22;11557;50.884;4.322;2022-07-23T03:36:56;18.60;99.90
22781;DHT22;11557;50.884;4.322;2022-07-23T03:39:22;18.60;99.90
22781;DHT22;11557;50.884;4.322;2022-07-23T03:41:48;18.70;99.90
22781;DHT22;11557;50.884;4.322;2022-07-23T03:44:14;18.70;99.90
22781;DHT22;11557;50.884;4.322;2022-07-23T03:46:39;18.60;99.90
22781;DHT22;11557;50.884;4.322;2022-07-23T03:49:05;18.60;99.90
22781;DHT22;11557;50.884;4.322;2022-07-23T03:51:31;18.60;99.90
22781;DHT22;11557;50.884;4.322;2022-07-23T03:54:04;18.50;99.90
22781;DHT22;11557;50.884;4.322;2022-07-23T03:56:29;18.50;99.90
22781;DHT22;11557;50.884;4.322;2022-07-23T03:58:55;18.70;99.90
22781;DHT22;11557;50.884;4.322;2022-07-23T04:01:20;18.70;99.90
22781;DHT22;11557;50.884;4.322;2022-07-23T04:03:46;18.70;99.90
22781;DHT22;11557;50.884;4.322;2022-07-23T04:06:12;18.70;99.90
22781;DHT22;11557;50.884;4.322;2022-07-23T04:08:37;18.50;99.90
22781;DHT22;11557;50.884;4.322;2022-07-23T04:11:03;18.50;99.90
22781;DHT22;11557;50.884;4.322;2022-07-23T04:13:29;18.70;99.90
22781;DHT22;11557;50.884;4.322;2022-07-23T04:15:55;18.60;99.90
22781;DHT22;11557;50.884;4.322;2022-07-23T04:18:20;18.60;99.90
22781;DHT22;11557;50.884;4.322;2022-07-23T04:20:50;18.60;99.90
22781;DHT22;11557;50.884;4.322;2022-07-23T04:23:16;18.60;99.90
22781;DHT22;11557;50.884;4.322;2022-07-23T04:25:42;18.50;99.90
22781;DHT22;11557;50.884;4.322;2022-07-23T04:28:08;18.50;99.90
22781;DHT22;11557;50.884;4.322;2022-07-23T04:30:34;18.50;99.90
22781;DHT22;11557;50.884;4.322;2022-07-23T04:33:00;18.60;99.90
22781;DHT22;11557;50.884;4.322;2022-07-23T04:35:25;18.70;99.90
22781;DHT22;11557;50.884;4.322;2022-07-23T04:37:51;18.70;99.90
22781;DHT22;11557;50.884;4.322;2022-07-23T04:40:17;18.70;99.90
22781;DHT22;11557;50.884;4.322;2022-07-23T04:42:43;18.70;99.90
22781;DHT22;11557;50.884;4.322;2022-07-23T04:45:09;18.70;99.90
22781;DHT22;11557;50.884;4.322;2022-07-23T04:47:34;18.70;99.90
22781;DHT22;11557;50.884;4.322;2022-07-23T04:50:00;18.80;99.90
22781;DHT22;11557;50.884;4.322;2022-07-23T04:52:26;18.80;99.90
22781;DHT22;11557;50.884;4.322;2022-07-23T04:54:51;18.90;99.90
22781;DHT22;11557;50.884;4.322;2022-07-23T04:57:17;19.00;99.90
22781;DHT22;11557;50.884;4.322;2022-07-23T04:59:43;19.00;99.90
22781;DHT22;11557;50.884;4.322;2022-07-23T05:02:08;19.00;99.90
22781;DHT22;11557;50.884;4.322;2022-07-23T05:04:34;19.00;99.90
22781;DHT22;11557;50.884;4.322;2022-07-23T05:07:00;19.10;99.90
22781;DHT22;11557;50.884;4.322;2022-07-23T05:09:25;19.10;99.90
22781;DHT22;11557;50.884;4.322;2022-07-23T05:11:51;19.10;99.90
22781;DHT22;11557;50.884;4.322;2022-07-23T05:14:17;19.20;99.90
22781;DHT22;11557;50.884;4.322;2022-07-23T05:16:43;19.40;99.90
22781;DHT22;11557;50.884;4.322;2022-07-23T05:19:08;19.20;99.90
22781;DHT22;11557;50.884;4.322;2022-07-23T05:21:34;19.20;99.90
22781;DHT22;11557;50.884;4.322;2022-07-23T05:24:00;19.30;99.90
22781;DHT22;11557;50.884;4.322;2022-07-23T05:26:25;19.40;99.90
22781;DHT22;11557;50.884;4.322;2022-07-23T05:28:51;19.50;99.90
22781;DHT22;11557;50.884;4.322;2022-07-23T05:31:17;19.70;99.90
22781;DHT22;11557;50.884;4.322;2022-07-23T05:33:43;19.80;99.90
22781;DHT22;11557;50.884;4.322;2022-07-23T05:36:09;19.90;99.90
22781;DHT22;11557;50.884;4.322;2022-07-23T05:38:35;20.00;99.90
22781;DHT22;11557;50.884;4.322;2022-07-23T05:41:01;20.10;99.90
22781;DHT22;11557;50.884;4.322;2022-07-23T05:43:27;20.10;99.90
22781;DHT22;11557;50.884;4.322;2022-07-23T05:45:53;20.10;99.90
22781;DHT22;11557;50.884;4.322;2022-07-23T05:48:19;20.10;99.90
22781;DHT22;11557;50.884;4.322;2022-07-23T05:50:46;20.20;99.90
22781;DHT22;11557;50.884;4.322;2022-07-23T05:53:12;20.20;99.90
22781;DHT22;11557;50.884;4.322;2022-07-23T05:55:38;20.20;99.90
22781;DHT22;11557;50.884;4.322;2022-07-23T05:58:03;20.30;99.90
22781;DHT22;11557;50.884;4.322;2022-07-23T06:00:29;20.40;99.90
22781;DHT22;11557;50.884;4.322;2022-07-23T06:02:55;20.50;99.90
22781;DHT22;11557;50.884;4.322;2022-07-23T06:05:21;20.60;99.90
22781;DHT22;11557;50.884;4.322;2022-07-23T06:07:47;20.60;99.90
22781;DHT22;11557;50.884;4.322;2022-07-23T06:10:13;20.60;99.90
22781;DHT22;11557;50.884;4.322;2022-07-23T06:12:38;20.60;99.90
22781;DHT22;11557;50.884;4.322;2022-07-23T06:15:04;20.60;99.90
22781;DHT22;11557;50.884;4.322;2022-07-23T06:17:30;20.60;99.90
22781;DHT22;11557;50.884;4.322;2022-07-23T06:19:56;20.50;99.90
22781;DHT22;11557;50.884;4.322;2022-07-23T06:22:22;20.40;99.90
22781;DHT22;11557;50.884;4.322;2022-07-23T06:24:49;20.50;99.90
22781;DHT22;11557;50.884;4.322;2022-07-23T06:27:14;20.50;99.90
22781;DHT22;11557;50.884;4.322;2022-07-23T06:29:40;20.50;99.90
22781;DHT22;11557;50.884;4.322;2022-07-23T06:32:06;20.60;99.90
22781;DHT22;11557;50.884;4.322;2022-07-23T06:34:32;20.60;99.90
22781;DHT22;11557;50.884;4.322;2022-07-23T06:36:59;20.60;99.90
22781;DHT22;11557;50.884;4.322;2022-07-23T06:39:24;20.10;99.90
22781;DHT22;11557;50.884;4.322;2022-07-23T06:41:50;20.60;99.90
22781;DHT22;11557;50.884;4.322;2022-07-23T06:44:16;20.60;99.90
22781;DHT22;11557;50.884;4.322;2022-07-23T06:46:42;20.80;99.90
22781;DHT22;11557;50.884;4.322;2022-07-23T06:49:08;20.80;99.90
22781;DHT22;11557;50.884;4.322;2022-07-23T06:51:34;20.80;99.90
22781;DHT22;11557;50.884;4.322;2022-07-23T06:54:00;20.80;99.90
22781;DHT22;11557;50.884;4.322;2022-07-23T06:56:26;20.90;99.90
22781;DHT22;11557;50.884;4.322;2022-07-23T06:58:51;20.90;99.90
22781;DHT22;11557;50.884;4.322;2022-07-23T07:01:17;21.50;99.90
22781;DHT22;11557;50.884;4.322;2022-07-23T07:03:43;23.90;99.90
22781;DHT22;11557;50.884;4.322;2022-07-23T07:06:09;27.10;99.90
22781;DHT22;11557;50.884;4.322;2022-07-23T07:08:34;29.70;99.90
22781;DHT22;11557;50.884;4.322;2022-07-23T07:11:00;31.90;99.90
22781;DHT22;11557;50.884;4.322;2022-07-23T07:13:26;33.90;99.90
22781;DHT22;11557;50.884;4.322;2022-07-23T07:15:51;35.60;99.90
22781;DHT22;11557;50.884;4.322;2022-07-23T07:18:17;36.70;99.90
22781;DHT22;11557;50.884;4.322;2022-07-23T07:20:42;37.70;99.90
22781;DHT22;11557;50.884;4.322;2022-07-23T07:23:08;38.50;99.90
22781;DHT22;11557;50.884;4.322;2022-07-23T07:25:34;39.20;99.90
22781;DHT22;11557;50.884;4.322;2022-07-23T07:28:00;39.90;99.90
22781;DHT22;11557;50.884;4.322;2022-07-23T07:30:25;40.40;98.40
22781;DHT22;11557;50.884;4.322;2022-07-23T07:32:51;40.90;97.60
22781;DHT22;11557;50.884;4.322;2022-07-23T07:35:16;40.90;95.30
22781;DHT22;11557;50.884;4.322;2022-07-23T07:37:42;41.20;95.50
22781;DHT22;11557;50.884;4.322;2022-07-23T07:40:08;41.50;94.80
22781;DHT22;11557;50.884;4.322;2022-07-23T07:42:34;41.90;93.40
22781;DHT22;11557;50.884;4.322;2022-07-23T07:44:59;42.10;92.80
22781;DHT22;11557;50.884;4.322;2022-07-23T07:47:25;42.20;91.50
22781;DHT22;11557;50.884;4.322;2022-07-23T07:49:52;41.80;90.80
22781;DHT22;11557;50.884;4.322;2022-07-23T07:52:18;42.00;91.60
22781;DHT22;11557;50.884;4.322;2022-07-23T07:54:43;42.00;91.00
22781;DHT22;11557;50.884;4.322;2022-07-23T07:57:09;42.30;90.80
22781;DHT22;11557;50.884;4.322;2022-07-23T07:59:35;42.40;90.70
22781;DHT22;11557;50.884;4.322;2022-07-23T08:02:01;42.30;87.60
22781;DHT22;11557;50.884;4.322;2022-07-23T08:04:26;42.10;88.90
22781;DHT22;11557;50.884;4.322;2022-07-23T08:06:52;42.40;88.00
22781;DHT22;11557;50.884;4.322;2022-07-23T08:09:18;42.40;88.60
22781;DHT22;11557;50.884;4.322;2022-07-23T08:11:43;42.60;86.60
22781;DHT22;11557;50.884;4.322;2022-07-23T08:14:09;42.60;87.00
22781;DHT22;11557;50.884;4.322;2022-07-23T08:16:36;42.90;87.10
22781;DHT22;11557;50.884;4.322;2022-07-23T08:19:02;42.80;84.50
22781;DHT22;11557;50.884;4.322;2022-07-23T08:21:27;43.00;85.00
22781;DHT22;11557;50.884;4.322;2022-07-23T08:23:53;43.10;84.20
22781;DHT22;11557;50.884;4.322;2022-07-23T08:26:18;43.00;83.60
22781;DHT22;11557;50.884;4.322;2022-07-23T08:28:44;42.90;82.20
22781;DHT22;11557;50.884;4.322;2022-07-23T08:31:10;42.90;81.50
22781;DHT22;11557;50.884;4.322;2022-07-23T08:33:37;42.70;81.20
22781;DHT22;11557;50.884;4.322;2022-07-23T08:36:03;42.60;80.80
22781;DHT22;11557;50.884;4.322;2022-07-23T08:38:29;42.30;81.30
22781;DHT22;11557;50.884;4.322;2022-07-23T08:40:56;42.10;81.90
22781;DHT22;11557;50.884;4.322;2022-07-23T08:43:28;42.00;83.30
22781;DHT22;11557;50.884;4.322;2022-07-23T08:45:56;42.10;81.70
22781;DHT22;11557;50.884;4.322;2022-07-23T08:48:25;41.90;81.40
22781;DHT22;11557;50.884;4.322;2022-07-23T08:50:56;42.00;80.90
22781;DHT22;11557;50.884;4.322;2022-07-23T08:53:23;41.50;82.20
22781;DHT22;11557;50.884;4.322;2022-07-23T08:55:54;41.60;83.00
22781;DHT22;11557;50.884;4.322;2022-07-23T08:58:21;41.60;84.00
22781;DHT22;11557;50.884;4.322;2022-07-23T09:00:47;41.70;83.40
22781;DHT22;11557;50.884;4.322;2022-07-23T09:03:22;41.00;83.20
22781;DHT22;11557;50.884;4.322;2022-07-23T09:05:50;40.70;83.40
22781;DHT22;11557;50.884;4.322;2022-07-23T09:08:21;40.50;83.00
22781;DHT22;11557;50.884;4.322;2022-07-23T09:10:54;40.60;84.00
22781;DHT22;11557;50.884;4.322;2022-07-23T09:15:57;40.70;83.50
22781;DHT22;11557;50.884;4.322;2022-07-23T09:18:38;40.60;81.80
22781;DHT22;11557;50.884;4.322;2022-07-23T09:21:15;39.30;82.90
22781;DHT22;11557;50.884;4.322;2022-07-23T09:23:50;38.00;85.10
22781;DHT22;11557;50.884;4.322;2022-07-23T09:28:59;37.90;86.90
22781;DHT22;11557;50.884;4.322;2022-07-23T09:31:30;38.10;86.50
22781;DHT22;11557;50.884;4.322;2022-07-23T09:37:09;38.10;86.60
22781;DHT22;11557;50.884;4.322;2022-07-23T09:39:35;38.10;89.30
22781;DHT22;11557;50.884;4.322;2022-07-23T09:42:17;38.20;87.70
22781;DHT22;11557;50.884;4.322;2022-07-23T09:44:48;38.10;87.40
22781;DHT22;11557;50.884;4.322;2022-07-23T09:47:14;38.00;84.00
22781;DHT22;11557;50.884;4.322;2022-07-23T09:49:40;38.00;85.60
22781;DHT22;11557;50.884;4.322;2022-07-23T09:52:27;38.00;82.90
22781;DHT22;11557;50.884;4.322;2022-07-23T09:54:58;36.50;84.10
22781;DHT22;11557;50.884;4.322;2022-07-23T09:57:25;36.00;85.10
22781;DHT22;11557;50.884;4.322;2022-07-23T09:59:52;35.90;90.50
22781;DHT22;11557;50.884;4.322;2022-07-23T10:02:19;36.00;90.40
22781;DHT22;11557;50.884;4.322;2022-07-23T10:04:45;36.10;89.30
22781;DHT22;11557;50.884;4.322;2022-07-23T10:07:11;36.10;88.30
22781;DHT22;11557;50.884;4.322;2022-07-23T10:09:42;36.10;90.10
22781;DHT22;11557;50.884;4.322;2022-07-23T10:12:14;36.10;86.80
22781;DHT22;11557;50.884;4.322;2022-07-23T10:14:45;35.90;87.20
22781;DHT22;11557;50.884;4.322;2022-07-23T10:17:11;35.60;83.70
22781;DHT22;11557;50.884;4.322;2022-07-23T10:19:38;35.10;88.60
22781;DHT22;11557;50.884;4.322;2022-07-23T10:22:10;35.20;85.80
22781;DHT22;11557;50.884;4.322;2022-07-23T10:30:10;33.30;89.60
22781;DHT22;11557;50.884;4.322;2022-07-23T10:32:45;33.40;90.80
22781;DHT22;11557;50.884;4.322;2022-07-23T10:35:23;33.60;90.30
22781;DHT22;11557;50.884;4.322;2022-07-23T10:37:56;33.40;90.00
22781;DHT22;11557;50.884;4.322;2022-07-23T10:40:25;33.30;90.30
22781;DHT22;11557;50.884;4.322;2022-07-23T10:42:52;32.70;90.10
22781;DHT22;11557;50.884;4.322;2022-07-23T10:47:49;31.90;91.10
22781;DHT22;11557;50.884;4.322;2022-07-23T10:50:29;31.80;91.40
22781;DHT22;11557;50.884;4.322;2022-07-23T10:58:02;30.40;92.10
22781;DHT22;11557;50.884;4.322;2022-07-23T11:00:29;30.20;92.00
22781;DHT22;11557;50.884;4.322;2022-07-23T11:03:00;30.20;94.70
22781;DHT22;11557;50.884;4.322;2022-07-23T11:05:43;30.50;95.90
22781;DHT22;11557;50.884;4.322;2022-07-23T11:08:10;30.70;93.50
22781;DHT22;11557;50.884;4.322;2022-07-23T11:10:48;30.70;95.90
22781;DHT22;11557;50.884;4.322;2022-07-23T11:24:08;30.90;94.10
22781;DHT22;11557;50.884;4.322;2022-07-23T11:32:05;31.50;96.50
22781;DHT22;11557;50.884;4.322;2022-07-23T11:34:42;31.80;94.90
22781;DHT22;11557;50.884;4.322;2022-07-23T11:37:12;32.00;93.30
22781;DHT22;11557;50.884;4.322;2022-07-23T11:39:57;32.30;92.30
22781;DHT22;11557;50.884;4.322;2022-07-23T11:42:22;32.30;92.60
22781;DHT22;11557;50.884;4.322;2022-07-23T11:44:50;32.10;92.60
22781;DHT22;11557;50.884;4.322;2022-07-23T11:47:22;32.30;92.90
22781;DHT22;11557;50.884;4.322;2022-07-23T11:49:59;32.00;92.80
22781;DHT22;11557;50.884;4.322;2022-07-23T11:52:25;32.30;92.60
22781;DHT22;11557;50.884;4.322;2022-07-23T11:54:56;32.20;93.10
22781;DHT22;11557;50.884;4.322;2022-07-23T11:57:29;32.10;94.30
22781;DHT22;11557;50.884;4.322;2022-07-23T11:59:57;32.10;96.20
22781;DHT22;11557;50.884;4.322;2022-07-23T12:02:24;32.50;95.20
22781;DHT22;11557;50.884;4.322;2022-07-23T12:04:52;32.60;93.50
22781;DHT22;11557;50.884;4.322;2022-07-23T12:12:58;32.20;94.40
22781;DHT22;11557;50.884;4.322;2022-07-23T12:15:30;32.40;94.30
22781;DHT22;11557;50.884;4.322;2022-07-23T12:17:58;32.10;93.10
22781;DHT22;11557;50.884;4.322;2022-07-23T12:20:30;32.20;93.20
22781;DHT22;11557;50.884;4.322;2022-07-23T12:23:01;32.30;95.60
22781;DHT22;11557;50.884;4.322;2022-07-23T12:25:29;32.40;94.40
22781;DHT22;11557;50.884;4.322;2022-07-23T12:28:07;32.40;93.30
22781;DHT22;11557;50.884;4.322;2022-07-23T12:30:37;32.40;92.70
22781;DHT22;11557;50.884;4.322;2022-07-23T12:33:04;32.40;92.00
22781;DHT22;11557;50.884;4.322;2022-07-23T12:35:36;31.70;92.60
22781;DHT22;11557;50.884;4.322;2022-07-23T12:38:07;31.50;93.30
22781;DHT22;11557;50.884;4.322;2022-07-23T12:43:11;31.10;93.50
22781;DHT22;11557;50.884;4.322;2022-07-23T12:45:52;30.80;94.30
22781;DHT22;11557;50.884;4.322;2022-07-23T12:48:29;30.10;94.50
22781;DHT22;11557;50.884;4.322;2022-07-23T12:51:00;30.10;95.90
22781;DHT22;11557;50.884;4.322;2022-07-23T12:53:30;29.80;94.90
22781;DHT22;11557;50.884;4.322;2022-07-23T12:56:12;29.80;96.40
22781;DHT22;11557;50.884;4.322;2022-07-23T13:04:06;30.10;95.00
22781;DHT22;11557;50.884;4.322;2022-07-23T13:06:33;29.90;95.70
22781;DHT22;11557;50.884;4.322;2022-07-23T13:08:59;29.70;97.20
22781;DHT22;11557;50.884;4.322;2022-07-23T13:11:25;29.70;95.60
22781;DHT22;11557;50.884;4.322;2022-07-23T13:13:51;29.40;95.40
22781;DHT22;11557;50.884;4.322;2022-07-23T13:16:17;28.50;96.70
22781;DHT22;11557;50.884;4.322;2022-07-23T13:18:43;28.50;97.70
22781;DHT22;11557;50.884;4.322;2022-07-23T13:21:08;29.00;99.80
22781;DHT22;11557;50.884;4.322;2022-07-23T13:23:34;29.50;97.10
22781;DHT22;11557;50.884;4.322;2022-07-23T13:26:00;30.10;96.50
22781;DHT22;11557;50.884;4.322;2022-07-23T13:28:26;30.50;95.90
22781;DHT22;11557;50.884;4.322;2022-07-23T13:30:52;30.90;96.40
22781;DHT22;11557;50.884;4.322;2022-07-23T13:33:20;31.20;96.60
22781;DHT22;11557;50.884;4.322;2022-07-23T13:35:47;30.90;96.10
22781;DHT22;11557;50.884;4.322;2022-07-23T13:38:13;30.90;96.90
22781;DHT22;11557;50.884;4.322;2022-07-23T13:40:41;30.20;94.60
22781;DHT22;11557;50.884;4.322;2022-07-23T13:43:09;30.20;95.90
22781;DHT22;11557;50.884;4.322;2022-07-23T13:45:35;30.30;95.90
22781;DHT22;11557;50.884;4.322;2022-07-23T13:48:01;30.60;96.40
22781;DHT22;11557;50.884;4.322;2022-07-23T13:50:27;30.60;95.60
22781;DHT22;11557;50.884;4.322;2022-07-23T13:52:53;30.80;94.90
22781;DHT22;11557;50.884;4.322;2022-07-23T13:55:19;30.30;95.80
22781;DHT22;11557;50.884;4.322;2022-07-23T13:57:44;29.90;95.60
22781;DHT22;11557;50.884;4.322;2022-07-23T14:00:10;29.90;95.90
22781;DHT22;11557;50.884;4.322;2022-07-23T14:02:38;29.70;97.20
22781;DHT22;11557;50.884;4.322;2022-07-23T14:05:05;29.50;98.40
22781;DHT22;11557;50.884;4.322;2022-07-23T14:07:33;29.40;97.60
22781;DHT22;11557;50.884;4.322;2022-07-23T14:09:59;29.40;98.60
22781;DHT22;11557;50.884;4.322;2022-07-23T14:12:25;29.70;99.80
22781;DHT22;11557;50.884;4.322;2022-07-23T14:14:51;30.10;96.70
22781;DHT22;11557;50.884;4.322;2022-07-23T14:17:17;30.20;97.10
22781;DHT22;11557;50.884;4.322;2022-07-23T14:19:43;29.90;96.70
22781;DHT22;11557;50.884;4.322;2022-07-23T14:22:08;29.50;97.40
22781;DHT22;11557;50.884;4.322;2022-07-23T14:24:34;29.20;99.00
22781;DHT22;11557;50.884;4.322;2022-07-23T14:27:01;29.30;99.10
22781;DHT22;11557;50.884;4.322;2022-07-23T14:29:27;29.20;98.20
22781;DHT22;11557;50.884;4.322;2022-07-23T14:31:53;29.50;98.30
22781;DHT22;11557;50.884;4.322;2022-07-23T14:34:18;29.80;98.40
22781;DHT22;11557;50.884;4.322;2022-07-23T14:36:44;30.00;97.10
22781;DHT22;11557;50.884;4.322;2022-07-23T14:39:10;30.20;97.80
22781;DHT22;11557;50.884;4.322;2022-07-23T14:41:38;30.00;96.20
22781;DHT22;11557;50.884;4.322;2022-07-23T14:44:04;30.00;97.30
22781;DHT22;11557;50.884;4.322;2022-07-23T14:46:30;30.00;98.70
22781;DHT22;11557;50.884;4.322;2022-07-23T14:48:56;29.90;97.70
22781;DHT22;11557;50.884;4.322;2022-07-23T14:51:22;29.80;97.30
22781;DHT22;11557;50.884;4.322;2022-07-23T14:53:47;29.80;97.80
22781;DHT22;11557;50.884;4.322;2022-07-23T14:56:14;29.70;98.30
22781;DHT22;11557;50.884;4.322;2022-07-23T14:58:40;29.40;97.10
22781;DHT22;11557;50.884;4.322;2022-07-23T15:01:06;29.30;98.20
22781;DHT22;11557;50.884;4.322;2022-07-23T15:03:32;29.40;97.70
22781;DHT22;11557;50.884;4.322;2022-07-23T15:05:58;29.50;98.00
22781;DHT22;11557;50.884;4.322;2022-07-23T15:08:24;29.50;98.50
22781;DHT22;11557;50.884;4.322;2022-07-23T15:10:49;29.40;98.70
22781;DHT22;11557;50.884;4.322;2022-07-23T15:13:15;29.00;97.00
22781;DHT22;11557;50.884;4.322;2022-07-23T15:15:40;29.10;98.00
22781;DHT22;11557;50.884;4.322;2022-07-23T15:18:06;29.20;98.50
22781;DHT22;11557;50.884;4.322;2022-07-23T15:20:32;29.20;98.90
22781;DHT22;11557;50.884;4.322;2022-07-23T15:22:57;29.10;97.90
22781;DHT22;11557;50.884;4.322;2022-07-23T15:25:23;29.50;97.40
22781;DHT22;11557;50.884;4.322;2022-07-23T15:27:49;29.80;97.50
22781;DHT22;11557;50.884;4.322;2022-07-23T15:30:15;30.00;96.60
22781;DHT22;11557;50.884;4.322;2022-07-23T15:32:41;30.20;96.80
22781;DHT22;11557;50.884;4.322;2022-07-23T15:35:07;30.00;96.50
22781;DHT22;11557;50.884;4.322;2022-07-23T15:37:34;30.00;96.30
22781;DHT22;11557;50.884;4.322;2022-07-23T15:40:00;29.80;96.90
22781;DHT22;11557;50.884;4.322;2022-07-23T15:42:26;29.50;97.40
22781;DHT22;11557;50.884;4.322;2022-07-23T15:44:52;29.20;96.90
22781;DHT22;11557;50.884;4.322;2022-07-23T15:47:18;29.20;97.70
22781;DHT22;11557;50.884;4.322;2022-07-23T15:49:45;29.20;97.70
22781;DHT22;11557;50.884;4.322;2022-07-23T15:52:11;29.40;98.40
22781;DHT22;11557;50.884;4.322;2022-07-23T15:54:38;29.50;96.80
22781;DHT22;11557;50.884;4.322;2022-07-23T15:57:04;29.30;97.20
22781;DHT22;11557;50.884;4.322;2022-07-23T15:59:30;29.10;97.80
22781;DHT22;11557;50.884;4.322;2022-07-23T16:01:56;29.20;98.00
22781;DHT22;11557;50.884;4.322;2022-07-23T16:04:22;29.20;99.50
22781;DHT22;11557;50.884;4.322;2022-07-23T16:06:48;29.30;98.30
22781;DHT22;11557;50.884;4.322;2022-07-23T16:09:14;29.50;98.00
22781;DHT22;11557;50.884;4.322;2022-07-23T16:11:39;29.60;98.10
22781;DHT22;11557;50.884;4.322;2022-07-23T16:14:05;29.40;98.20
22781;DHT22;11557;50.884;4.322;2022-07-23T16:16:31;29.60;97.50
22781;DHT22;11557;50.884;4.322;2022-07-23T16:18:56;29.40;97.20
22781;DHT22;11557;50.884;4.322;2022-07-23T16:21:23;29.40;97.50